Time;durP1;ratioP1;P1;durP2;ratioP2;P2;SDS_P1;SDS_P2;PMS_P1;PMS_P2;Temp;Humidity;BMP_temperature;BMP_pressure;BME280_temperature;BME280_humidity;BME280_pressure;Samples;Min_cycle;Max_cycle;Signal;HPM_P1;HPM_P2
2022/09/02 00:01:24;;;;;;;3.90;3.13;;;;;;;17.49;58.83;100951.00;5040043;28;20504;-78
2022/09/02 00:03:58;;;;;;;3.80;2.85;;;;;;;17.55;58.38;100948.41;5038773;28;20077;-79
2022/09/02 00:06:28;;;;;;;7.05;3.15;;;;;;;17.58;58.38;100940.09;5038177;28;20103;-79
2022/09/02 00:08:55;;;;;;;3.58;3.17;;;;;;;17.51;58.60;100944.53;5038969;28;20158;-79
2022/09/02 00:11:26;;;;;;;5.13;3.58;;;;;;;17.44;58.91;100946.34;5035432;28;20053;-77
2022/09/02 00:13:54;;;;;;;6.00;3.42;;;;;;;17.38;58.84;100939.16;5036974;28;20046;-77
2022/09/02 00:16:23;;;;;;;4.55;3.33;;;;;;;17.38;59.21;100938.34;5035740;28;20111;-78
2022/09/02 00:18:50;;;;;;;5.65;3.20;;;;;;;17.47;58.76;100935.38;5036950;28;20045;-79
2022/09/02 00:21:17;;;;;;;9.90;5.57;;;;;;;17.40;59.03;100931.84;5041898;28;20049;-78
2022/09/02 00:23:45;;;;;;;3.88;3.33;;;;;;;17.38;58.98;100939.16;5040795;28;20041;-80
2022/09/02 00:26:13;;;;;;;4.75;3.13;;;;;;;17.37;59.21;100937.53;5040525;28;20076;-80
2022/09/02 00:28:40;;;;;;;5.35;3.42;;;;;;;17.37;59.10;100923.47;5040139;28;20516;-79
2022/09/02 00:31:07;;;;;;;4.57;3.00;;;;;;;17.40;59.08;100925.75;5040104;28;20085;-80
2022/09/02 00:33:35;;;;;;;6.65;3.45;;;;;;;17.38;59.13;100920.66;5040400;28;20053;-80
2022/09/02 00:36:04;;;;;;;7.03;3.30;;;;;;;17.38;59.02;100918.00;5041065;28;20076;-79
2022/09/02 00:38:32;;;;;;;8.98;3.40;;;;;;;17.39;59.05;100922.28;5039756;28;20088;-80
2022/09/02 00:41:04;;;;;;;4.15;3.17;;;;;;;17.37;59.25;100915.53;5040089;28;20080;-80
2022/09/02 00:43:42;;;;;;;5.22;3.00;;;;;;;17.32;59.49;100910.03;5039817;28;20041;-80
2022/09/02 00:46:13;;;;;;;8.07;3.20;;;;;;;17.34;59.45;100910.66;5038609;28;20080;-79
2022/09/02 00:48:47;;;;;;;6.35;3.35;;;;;;;17.27;59.86;100910.59;5021837;28;20073;-81
2022/09/02 00:51:14;;;;;;;8.10;3.13;;;;;;;17.23;60.06;100917.28;5036145;28;20089;-77
2022/09/02 00:53:44;;;;;;;4.63;3.15;;;;;;;17.14;60.53;100921.88;5038845;28;20077;-79
2022/09/02 00:56:15;;;;;;;4.55;3.00;;;;;;;17.18;60.13;100911.75;5041710;28;20073;-80
2022/09/02 00:58:43;;;;;;;4.93;3.58;;;;;;;17.13;60.31;100908.84;5042263;28;20049;-78
2022/09/02 01:01:10;;;;;;;5.18;2.85;;;;;;;17.08;60.66;100913.91;5040110;28;20077;-79
2022/09/02 01:03:39;;;;;;;6.18;3.25;;;;;;;17.07;60.52;100909.63;5039294;28;20057;-80
2022/09/02 01:06:08;;;;;;;8.70;3.10;;;;;;;17.05;60.80;100911.63;5040655;28;20095;-81
2022/09/02 01:08:39;;;;;;;6.57;3.10;;;;;;;17.02;60.91;100906.72;5039663;28;20096;-80
2022/09/02 01:11:06;;;;;;;3.83;3.10;;;;;;;17.02;61.05;100912.00;5044346;28;20090;-80
2022/09/02 01:13:38;;;;;;;5.57;3.40;;;;;;;17.02;61.00;100912.00;5043897;28;20053;-79
2022/09/02 01:16:10;;;;;;;6.93;3.15;;;;;;;16.96;61.26;100905.69;5042457;28;20420;-78
2022/09/02 01:18:37;;;;;;;6.50;3.10;;;;;;;16.88;61.49;100904.00;5042845;28;20084;-79
2022/09/02 01:21:05;;;;;;;5.50;3.05;;;;;;;16.91;61.21;100910.72;5043666;28;20072;-80
2022/09/02 01:23:37;;;;;;;7.13;3.53;;;;;;;16.86;61.61;100913.94;5042991;28;20084;-80
2022/09/02 01:26:06;;;;;;;6.45;3.28;;;;;;;16.90;61.27;100911.72;5041881;28;20140;-80
2022/09/02 01:28:33;;;;;;;6.38;3.50;;;;;;;16.89;61.34;100908.28;5042793;28;20042;-79
2022/09/02 01:31:00;;;;;;;6.30;3.05;;;;;;;16.86;61.47;100903.38;5042423;28;20104;-79
2022/09/02 01:33:27;;;;;;;8.82;3.60;;;;;;;16.87;61.23;100898.91;5043125;28;20457;-79
2022/09/02 01:35:54;;;;;;;6.50;3.40;;;;;;;16.82;61.45;100912.69;5045248;28;20049;-79
2022/09/02 01:38:22;;;;;;;7.35;3.33;;;;;;;16.71;62.17;100905.25;5044985;28;20053;-79
2022/09/02 01:40:53;;;;;;;7.40;3.20;;;;;;;16.67;62.41;100905.81;5042270;28;20124;-78
2022/09/02 01:43:23;;;;;;;7.03;3.20;;;;;;;16.58;62.92;100905.91;5036697;28;20072;-78
2022/09/02 01:45:52;;;;;;;6.50;3.30;;;;;;;16.56;63.30;100901.81;5032589;28;20076;-79
2022/09/02 01:48:19;;;;;;;3.97;3.30;;;;;;;16.49;63.22;100893.84;5034562;28;20490;-80
2022/09/02 01:50:50;;;;;;;6.75;3.40;;;;;;;16.54;63.11;100902.00;5034708;28;20049;-79
2022/09/02 01:53:17;;;;;;;10.07;3.20;;;;;;;16.49;63.05;100888.56;5032592;28;20056;-78
2022/09/02 01:55:44;;;;;;;5.72;3.20;;;;;;;16.49;63.24;100895.69;5038546;28;20092;-78
2022/09/02 01:58:12;;;;;;;4.90;3.25;;;;;;;16.41;63.31;100891.34;5032694;28;20108;-76
2022/09/02 02:00:38;;;;;;;6.55;2.67;;;;;;;16.39;63.76;100892.53;5033035;28;20088;-78
2022/09/02 02:03:05;;;;;;;4.78;3.40;;;;;;;16.36;63.94;100884.97;5038746;28;20080;-79
2022/09/02 02:05:32;;;;;;;5.95;2.97;;;;;;;16.33;63.93;100890.63;5035655;28;20103;-79
2022/09/02 02:07:59;;;;;;;3.90;3.08;;;;;;;16.31;63.83;100888.16;5033751;28;20050;-78
2022/09/02 02:10:26;;;;;;;6.05;3.30;;;;;;;16.34;63.69;100892.25;5037158;28;20092;-78
2022/09/02 02:12:53;;;;;;;4.75;3.22;;;;;;;16.36;63.59;100892.91;5036659;28;20084;-79
2022/09/02 02:15:22;;;;;;;6.53;3.33;;;;;;;16.33;63.71;100896.72;5036344;28;20053;-79
2022/09/02 02:17:49;;;;;;;5.10;3.03;;;;;;;16.30;63.84;100889.19;5041414;28;20109;-79
2022/09/02 02:20:17;;;;;;;5.00;3.40;;;;;;;16.31;63.58;100887.34;5040771;28;20049;-79
2022/09/02 02:22:44;;;;;;;3.95;3.00;;;;;;;16.23;63.88;100896.19;5042723;28;20050;-79
2022/09/02 02:25:13;;;;;;;3.95;3.17;;;;;;;16.20;64.23;100901.84;5043758;28;20073;-79
2022/09/02 02:27:40;;;;;;;3.80;3.25;;;;;;;16.12;64.61;100896.69;5042881;28;20077;-79
2022/09/02 02:30:10;;;;;;;4.25;3.05;;;;;;;16.08;64.69;100906.78;5040609;28;20132;-79
2022/09/02 02:32:38;;;;;;;4.88;3.05;;;;;;;16.03;64.89;100901.28;5039194;28;20102;-79
2022/09/02 02:35:09;;;;;;;5.00;3.30;;;;;;;15.98;65.53;100903.66;5040800;28;20088;-80
2022/09/02 02:37:36;;;;;;;6.15;3.22;;;;;;;15.97;64.90;100899.38;5040740;28;20393;-79
2022/09/02 02:40:03;;;;;;;7.10;3.20;;;;;;;15.95;65.48;100901.38;5040593;28;20049;-80
2022/09/02 02:42:30;;;;;;;10.35;3.42;;;;;;;15.93;65.26;100900.75;5040955;28;20425;-79
2022/09/02 02:44:57;;;;;;;7.57;3.58;;;;;;;15.92;65.15;100896.47;5040533;28;20073;-79
2022/09/02 02:47:23;;;;;;;5.93;3.08;;;;;;;15.93;65.44;100900.75;5041332;28;20077;-79
2022/09/02 02:49:52;;;;;;;5.70;3.38;;;;;;;15.91;65.25;100892.19;5040978;28;20068;-79
2022/09/02 02:52:18;;;;;;;5.43;3.17;;;;;;;15.94;65.14;100899.75;5042892;28;20152;-79
2022/09/02 02:54:45;;;;;;;7.45;3.45;;;;;;;15.92;65.42;100896.47;5042406;28;20060;-80
2022/09/02 02:57:13;;;;;;;3.63;3.10;;;;;;;15.91;65.33;100893.00;5045167;28;20121;-80
2022/09/02 02:59:39;;;;;;;6.65;3.25;;;;;;;15.88;65.75;100893.38;5046743;28;20057;-80
2022/09/02 03:02:06;;;;;;;5.00;3.17;;;;;;;15.83;65.81;100900.19;5046750;28;20095;-80
2022/09/02 03:04:33;;;;;;;4.93;2.90;;;;;;;15.81;65.99;100899.56;5046857;28;20037;-80
2022/09/02 03:07:01;;;;;;;4.90;3.08;;;;;;;15.83;65.92;100901.00;5046177;28;20060;-79
2022/09/02 03:09:28;;;;;;;6.18;3.05;;;;;;;15.85;65.95;100895.56;5044641;28;20041;-80
2022/09/02 03:11:57;;;;;;;6.82;3.15;;;;;;;15.90;65.72;100890.56;5043603;28;20079;-78
2022/09/02 03:14:24;;;;;;;4.82;3.20;;;;;;;15.92;65.62;100894.63;5044139;28;20080;-78
2022/09/02 03:16:50;;;;;;;5.40;3.25;;;;;;;15.87;66.04;100896.19;5045943;28;20061;-79
2022/09/02 03:19:17;;;;;;;4.53;3.10;;;;;;;15.84;66.19;100896.56;5045765;28;20072;-79
2022/09/02 03:21:44;;;;;;;5.57;3.30;;;;;;;15.83;66.13;100889.66;5045658;28;20049;-79
2022/09/02 03:24:12;;;;;;;3.75;3.28;;;;;;;15.76;66.37;100886.09;5047691;28;20053;-79
2022/09/02 03:26:41;;;;;;;4.82;3.30;;;;;;;15.79;66.29;100888.38;5046809;28;20646;-79
2022/09/02 03:29:07;;;;;;;5.53;3.50;;;;;;;15.77;66.53;100895.66;5044190;28;20045;-78
2022/09/02 03:31:35;;;;;;;3.40;3.10;;;;;;;15.76;66.46;100888.72;5043566;28;20158;-78
2022/09/02 03:34:02;;;;;;;5.05;3.58;;;;;;;15.75;66.28;100893.19;5044938;28;20056;-78
2022/09/02 03:36:31;;;;;;;6.43;3.40;;;;;;;15.74;66.53;100891.56;5044746;28;20507;-79
2022/09/02 03:38:58;;;;;;;4.65;3.30;;;;;;;15.76;66.58;100888.72;5043551;28;20492;-81
2022/09/02 03:41:27;;;;;;;3.78;3.20;;;;;;;15.77;66.68;100895.66;5045395;28;20112;-78
2022/09/02 03:43:53;;;;;;;6.28;3.30;;;;;;;15.77;66.46;100885.91;5045999;28;20053;-78
2022/09/02 03:46:20;;;;;;;4.05;3.45;;;;;;;15.78;66.57;100886.75;5044669;28;20092;-78
2022/09/02 03:48:50;;;;;;;6.38;3.30;;;;;;;15.78;66.68;100878.81;5042010;28;20068;-78
2022/09/02 03:51:17;;;;;;;5.38;3.50;;;;;;;15.75;66.50;100884.47;5043121;28;20050;-78
2022/09/02 03:53:44;;;;;;;6.35;3.75;;;;;;;15.73;67.09;100883.81;5041961;28;20041;-78
2022/09/02 03:56:14;;;;;;;4.95;3.60;;;;;;;15.68;67.07;100881.72;5040547;28;20061;-78
2022/09/02 03:58:43;;;;;;;5.05;3.33;;;;;;;15.74;67.03;100885.47;5039863;28;20084;-79
2022/09/02 04:01:14;;;;;;;4.13;3.30;;;;;;;15.74;66.90;100885.47;5037260;28;20088;-78
2022/09/02 04:03:40;;;;;;;7.50;3.85;;;;;;;15.74;66.83;100883.66;5037317;28;20088;-79
2022/09/02 04:06:11;;;;;;;8.35;3.60;;;;;;;15.79;66.31;100873.34;5036692;28;20474;-78
2022/09/02 04:08:39;;;;;;;5.05;3.70;;;;;;;15.85;66.10;100870.00;5035722;28;20275;-79
2022/09/02 04:11:07;;;;;;;5.97;3.95;;;;;;;15.85;66.19;100863.91;5037156;28;20054;-78
2022/09/02 04:13:34;;;;;;;5.53;3.40;;;;;;;15.88;65.99;100872.25;5036360;28;20049;-77
2022/09/02 04:16:07;;;;;;;5.95;3.28;;;;;;;15.84;66.02;100875.44;5038046;28;20124;-79
2022/09/02 04:18:34;;;;;;;5.28;3.05;;;;;;;15.84;65.93;100870.16;5039594;28;20102;-79
2022/09/02 04:21:01;;;;;;;6.13;3.38;;;;;;;15.77;66.27;100870.09;5038836;28;20069;-79
2022/09/02 04:23:27;;;;;;;5.60;3.13;;;;;;;15.78;66.32;100868.25;5040460;28;20149;-79
2022/09/02 04:25:54;;;;;;;7.00;3.50;;;;;;;15.72;66.21;100869.81;5036089;28;20527;-79
2022/09/02 04:28:21;;;;;;;3.63;2.97;;;;;;;15.81;66.08;100875.81;5037804;28;20136;-79
2022/09/02 04:30:48;;;;;;;6.78;3.30;;;;;;;15.82;65.95;100872.19;5041050;28;20137;-78
2022/09/02 04:33:20;;;;;;;5.05;3.28;;;;;;;15.84;65.79;100875.44;5034428;28;20088;-78
2022/09/02 04:35:48;;;;;;;5.00;3.10;;;;;;;15.81;66.15;100879.28;5040584;28;20133;-79
2022/09/02 04:38:15;;;;;;;4.40;3.22;;;;;;;15.84;66.01;100875.44;5042408;28;20049;-79
2022/09/02 04:40:43;;;;;;;3.80;3.10;;;;;;;15.85;65.93;100875.25;5038553;28;20118;-79
2022/09/02 04:43:10;;;;;;;7.85;3.72;;;;;;;15.89;65.76;100863.34;5036690;28;20057;-79
2022/09/02 04:45:39;;;;;;;7.10;3.50;;;;;;;15.89;66.01;100867.81;5040912;28;20080;-79
2022/09/02 04:48:06;;;;;;;6.13;2.90;;;;;;;15.90;66.15;100872.06;5042202;28;20057;-78
2022/09/02 04:50:36;;;;;;;7.38;3.40;;;;;;;15.88;66.16;100876.72;5040562;28;20077;-79
2022/09/02 04:53:03;;;;;;;6.93;3.30;;;;;;;15.90;66.16;100874.72;5039657;28;20045;-80
2022/09/02 04:55:30;;;;;;;6.72;3.10;;;;;;;15.93;65.98;100874.34;5044070;28;20061;-78
2022/09/02 04:57:57;;;;;;;5.90;3.40;;;;;;;15.96;65.55;100865.25;5044421;28;20049;-78
2022/09/02 05:00:24;;;;;;;4.25;3.22;;;;;;;15.99;65.49;100867.50;5043343;28;20424;-79
2022/09/02 05:02:56;;;;;;;15.13;4.05;;;;;;;16.06;65.44;100874.50;5045937;28;20068;-79
2022/09/02 05:05:23;;;;;;;7.45;3.42;;;;;;;16.08;65.52;100875.13;5041594;28;20523;-77
2022/09/02 05:07:51;;;;;;;6.15;3.25;;;;;;;16.10;65.32;100867.81;5043776;28;20144;-78
2022/09/02 05:10:17;;;;;;;8.15;3.38;;;;;;;16.13;65.63;100874.56;5045240;28;20305;-79
2022/09/02 05:12:44;;;;;;;4.90;3.20;;;;;;;16.12;65.73;100865.00;5044990;28;20053;-78
2022/09/02 05:15:11;;;;;;;8.77;3.70;;;;;;;16.15;65.49;100870.72;5044046;28;20088;-78
2022/09/02 05:17:38;;;;;;;5.53;3.30;;;;;;;16.17;65.50;100868.72;5045268;28;20076;-79
2022/09/02 05:20:06;;;;;;;12.32;3.53;;;;;;;16.17;64.99;100859.97;5044606;28;20100;-79
2022/09/02 05:22:33;;;;;;;6.07;3.25;;;;;;;16.19;64.96;100863.25;5044965;28;20076;-80
2022/09/02 05:25:01;;;;;;;8.73;3.58;;;;;;;16.24;64.70;100864.34;5043180;28;20049;-80
2022/09/02 05:27:28;;;;;;;12.55;3.55;;;;;;;16.29;64.83;100865.59;5041260;28;20065;-80
2022/09/02 05:29:55;;;;;;;12.20;3.42;;;;;;;16.39;64.65;100868.75;5041789;28;20084;-80
2022/09/02 05:32:22;;;;;;;10.00;3.67;;;;;;;16.43;64.48;100865.56;5041316;28;20081;-80
2022/09/02 05:34:49;;;;;;;14.32;3.72;;;;;;;16.48;64.12;100868.44;5039746;28;20050;-81
2022/09/02 05:37:16;;;;;;;13.90;3.72;;;;;;;16.55;64.13;100865.84;5040017;28;20465;-78
2022/09/02 05:39:43;;;;;;;13.77;5.50;;;;;;;16.67;63.57;100861.72;5040048;28;20076;-80
2022/09/02 05:42:11;;;;;;;15.75;3.63;;;;;;;16.74;63.53;100867.06;5038256;28;20095;-80
2022/09/02 05:44:38;;;;;;;10.63;3.88;;;;;;;16.81;63.20;100868.75;5036455;28;20060;-79
2022/09/02 05:47:05;;;;;;;10.00;3.60;;;;;;;16.87;63.09;100857.44;5038876;28;20659;-79
2022/09/02 05:49:32;;;;;;;8.48;3.70;;;;;;;16.93;62.96;100866.41;5040368;28;20088;-79
2022/09/02 05:52:00;;;;;;;9.68;4.78;;;;;;;16.93;62.89;100863.78;5040057;28;20053;-79
2022/09/02 05:54:29;;;;;;;9.75;3.55;;;;;;;17.04;62.57;100867.69;5040042;28;20088;-79
2022/09/02 05:56:58;;;;;;;6.57;3.42;;;;;;;17.06;62.31;100861.22;5040685;28;20099;-81
2022/09/02 05:59:29;;;;;;;6.30;3.58;;;;;;;17.14;62.29;100868.19;5041808;28;20073;-80
2022/09/02 06:01:56;;;;;;;10.70;4.13;;;;;;;17.22;62.01;100870.69;5040895;28;20128;-80
2022/09/02 06:04:23;;;;;;;4.97;3.25;;;;;;;17.32;60.98;100865.88;5039257;28;20053;-80
2022/09/02 06:06:51;;;;;;;10.00;4.07;;;;;;;17.43;61.46;100861.88;5040660;28;20050;-81
2022/09/02 06:09:22;;;;;;;8.18;3.35;;;;;;;17.49;61.09;100867.16;5038563;28;20132;-82
2022/09/02 06:11:50;;;;;;;7.45;3.10;;;;;;;17.63;60.51;100872.53;5039111;28;20053;-81
2022/09/02 06:14:18;;;;;;;8.18;3.88;;;;;;;17.68;60.54;100870.16;5038287;28;20053;-82
2022/09/02 06:16:49;;;;;;;9.98;3.70;;;;;;;17.93;60.03;100866.00;5039199;28;20068;-81
2022/09/02 06:19:16;;;;;;;7.47;3.60;;;;;;;18.11;59.72;100868.06;5039066;28;20072;-82
2022/09/02 06:21:43;;;;;;;6.05;3.17;;;;;;;18.07;59.76;100874.78;5039194;28;20069;-81
2022/09/02 06:24:12;;;;;;;11.35;3.60;;;;;;;18.02;59.62;100867.44;5039402;28;20085;-80
2022/09/02 06:26:40;;;;;;;8.55;3.60;;;;;;;18.10;59.53;100869.09;5039627;28;20512;-80
2022/09/02 06:29:08;;;;;;;4.82;3.70;;;;;;;18.14;59.89;100873.78;5038996;28;20064;-81
2022/09/02 06:31:34;;;;;;;6.60;3.60;;;;;;;18.09;59.89;100868.28;5040684;28;20188;-81
2022/09/02 06:34:03;;;;;;;6.60;3.38;;;;;;;18.15;59.78;100867.47;5042082;28;20128;-81
2022/09/02 06:36:30;;;;;;;9.43;3.63;;;;;;;18.37;59.67;100869.97;5042697;28;20107;-82
2022/09/02 06:39:00;;;;;;;9.00;3.85;;;;;;;18.36;58.77;100871.00;5040979;28;20054;-81
2022/09/02 06:41:29;;;;;;;8.10;3.42;;;;;;;18.26;59.31;100862.63;5038442;28;20073;-81
2022/09/02 06:43:58;;;;;;;6.13;3.63;;;;;;;18.36;58.98;100868.34;5033839;28;20098;-81
2022/09/02 06:46:29;;;;;;;5.55;3.50;;;;;;;18.33;59.15;100874.06;5039960;28;20073;-82
2022/09/02 06:48:56;;;;;;;5.95;3.60;;;;;;;19.32;56.95;100861.63;5039191;28;20145;-79
2022/09/02 06:51:37;;;;;;;7.15;3.70;;;;;;;20.19;54.80;100850.47;5040886;28;20092;-82
2022/09/02 06:54:07;;;;;;;8.82;3.70;;;;;;;20.68;53.77;100874.69;5037761;28;20053;-83
2022/09/02 06:56:36;;;;;;;6.13;3.60;;;;;;;20.78;53.09;100854.56;5044594;28;20488;-82
2022/09/02 06:59:08;;;;;;;7.57;4.00;;;;;;;20.03;54.27;100856.28;5045486;28;20041;-83
2022/09/02 07:01:42;;;;;;;5.35;3.63;;;;;;;19.23;56.35;100866.34;5044085;28;20088;-82
2022/09/02 07:07:03;;;;;;;6.65;3.72;;;;;;;19.82;55.10;100856.59;5040251;28;20052;-83
2022/09/02 07:09:40;;;;;;;4.43;3.50;;;;;;;20.57;54.28;100865.56;5039097;28;20076;-84
2022/09/02 07:12:18;;;;;;;7.15;3.80;;;;;;;21.05;53.46;100859.66;5037087;28;20090;-83
2022/09/02 07:14:51;;;;;;;6.43;3.67;;;;;;;21.11;52.85;100848.13;5039350;28;20049;-82
2022/09/02 07:17:25;;;;;;;4.05;3.40;;;;;;;21.16;52.49;100834.97;5038880;28;20132;-81
2022/09/02 07:19:54;;;;;;;5.40;3.75;;;;;;;21.50;51.63;100829.09;5038310;28;20113;-82
2022/09/02 07:22:28;;;;;;;6.15;3.50;;;;;;;21.29;52.19;100842.03;5034064;28;20338;-82
2022/09/02 07:25:04;;;;;;;5.40;3.72;;;;;;;21.38;51.96;100846.84;5035651;28;20037;-81
2022/09/02 07:27:31;;;;;;;5.50;3.70;;;;;;;21.47;52.17;100853.50;5038104;28;20053;-82
2022/09/02 07:29:58;;;;;;;7.55;3.75;;;;;;;21.82;51.44;100840.34;5031905;28;20476;-81
2022/09/02 07:32:30;;;;;;;7.93;3.88;;;;;;;21.61;51.54;100826.72;5030173;28;20117;-82
2022/09/02 07:34:57;;;;;;;4.88;3.58;;;;;;;21.93;51.26;100836.13;5036289;28;20554;-82
2022/09/02 07:37:26;;;;;;;5.25;3.50;;;;;;;21.69;51.56;100823.75;5034586;28;20054;-81
2022/09/02 07:40:00;;;;;;;6.55;3.88;;;;;;;21.82;51.09;100834.22;5034882;28;20045;-82
2022/09/02 07:42:28;;;;;;;9.13;3.72;;;;;;;21.86;51.24;100824.75;5035724;28;20050;-82
2022/09/02 07:50:55;;;;;;;6.00;3.58;;;;;;;22.30;50.53;100841.38;4959531;28;20115;-82
2022/09/02 07:53:42;;;;;;;9.43;3.60;;;;;;;22.46;50.06;100840.72;5035075;28;20139;-81
2022/09/02 07:59:47;;;;;;;5.97;3.67;;;;;;;22.27;50.41;100839.97;4958529;29;20058;-80
2022/09/02 08:15:59;;;;;;;9.20;3.90;;;;;;;22.75;50.51;100839.81;4960097;28;20134;-80
2022/09/02 08:21:44;;;;;;;6.32;3.70;;;;;;;22.49;50.82;100829.59;5026329;28;20117;-82
2022/09/02 08:24:10;;;;;;;5.07;3.80;;;;;;;22.59;50.55;100827.19;5044475;23;20049;-79
2022/09/02 08:26:37;;;;;;;10.50;4.28;;;;;;;22.86;50.11;100829.41;5040052;28;20049;-78
2022/09/02 08:29:06;;;;;;;7.75;3.80;;;;;;;23.30;48.81;100814.63;5035783;28;20077;-78
2022/09/02 08:31:33;;;;;;;8.35;4.47;;;;;;;23.26;49.37;100832.97;5040591;28;20077;-79
2022/09/02 08:34:00;;;;;;;4.30;3.75;;;;;;;23.68;49.40;100822.91;5043057;28;20049;-79
2022/09/02 08:36:27;;;;;;;4.57;3.42;;;;;;;23.75;48.65;100823.59;5038402;28;20115;-78
2022/09/02 08:38:54;;;;;;;9.25;4.10;;;;;;;23.60;48.68;100827.84;5034975;28;20069;-79
2022/09/02 08:41:24;;;;;;;6.05;4.22;;;;;;;23.47;48.63;100819.00;5034336;28;20476;-78
2022/09/02 08:43:55;;;;;;;6.22;3.70;;;;;;;23.27;48.91;100818.59;5035678;28;20140;-79
2022/09/02 08:46:25;;;;;;;7.75;3.78;;;;;;;23.28;49.46;100811.38;5031949;28;20466;-77
2022/09/02 08:48:55;;;;;;;7.05;3.83;;;;;;;23.48;48.70;100811.81;5037177;28;20077;-79
2022/09/02 08:51:27;;;;;;;9.20;3.55;;;;;;;23.73;48.27;100808.84;5037139;28;20049;-79
2022/09/02 08:54:00;;;;;;;4.85;3.80;;;;;;;23.84;47.93;100810.66;5038096;28;20077;-80
2022/09/02 08:56:28;;;;;;;6.88;3.88;;;;;;;23.74;48.59;100810.47;5040022;28;20073;-79
2022/09/02 08:58:56;;;;;;;7.57;4.05;;;;;;;23.59;48.98;100808.34;5038337;28;20392;-80
2022/09/02 09:01:34;;;;;;;5.15;3.35;;;;;;;23.18;49.65;100803.97;5032638;28;20041;-79
2022/09/02 09:04:18;;;;;;;6.45;3.63;;;;;;;23.49;49.60;100813.44;5036026;28;20828;-79
2022/09/02 09:07:00;;;;;;;5.57;3.78;;;;;;;23.24;49.11;100804.88;5035253;28;20053;-78
2022/09/02 09:09:36;;;;;;;6.47;3.45;;;;;;;23.35;49.40;100802.19;5028671;28;20136;-79
2022/09/02 09:12:10;;;;;;;7.32;3.47;;;;;;;23.44;49.05;100799.97;5033169;28;20065;-78
2022/09/02 09:14:46;;;;;;;6.75;3.67;;;;;;;23.22;48.95;100799.78;5029388;28;20562;-79
2022/09/02 09:17:21;;;;;;;7.18;4.07;;;;;;;23.21;49.15;100789.34;5039281;28;20076;-80
2022/09/02 09:19:50;;;;;;;5.63;3.55;;;;;;;23.73;48.29;100782.13;5026739;28;20117;-81
2022/09/02 09:22:25;;;;;;;7.85;4.07;;;;;;;23.69;48.29;100776.44;5038746;28;20072;-81
2022/09/02 09:24:52;;;;;;;7.00;3.67;;;;;;;23.62;48.48;100794.50;5039515;28;20085;-81
2022/09/02 09:27:20;;;;;;;23.52;5.50;;;;;;;23.67;48.37;100767.03;5039238;28;20049;-81
2022/09/02 09:29:47;;;;;;;6.32;3.75;;;;;;;23.30;48.99;100782.59;5039830;28;20053;-81
2022/09/02 09:32:26;;;;;;;3.85;3.45;;;;;;;23.03;49.20;100768.97;5039254;28;20052;-82
2022/09/02 09:35:00;;;;;;;9.75;3.70;;;;;;;23.37;49.11;100770.75;5038186;28;20053;-80
2022/09/02 09:37:35;;;;;;;8.50;3.70;;;;;;;23.29;48.74;100764.94;5037875;28;20049;-82
2022/09/02 09:40:21;;;;;;;6.82;3.83;;;;;;;23.36;48.06;100762.97;5036784;28;20049;-80
2022/09/02 09:42:50;;;;;;;6.30;3.55;;;;;;;23.76;47.90;100765.63;5035736;28;20061;-80
2022/09/02 09:45:20;;;;;;;7.53;3.65;;;;;;;23.75;47.70;100777.34;5035735;28;20474;-80
2022/09/02 09:48:10;;;;;;;11.93;3.78;;;;;;;24.41;47.21;100765.97;5036983;28;20137;-78
2022/09/02 09:50:37;;;;;;;34.80;7.03;;;;;;;23.97;47.97;100767.63;5035184;28;20076;-78
2022/09/02 09:53:15;;;;;;;6.45;3.75;;;;;;;23.89;46.85;100757.31;5037942;28;20053;-80
2022/09/02 09:55:52;;;;;;;7.07;3.40;;;;;;;23.78;46.59;100756.31;5019684;28;20425;-79
2022/09/02 09:58:20;;;;;;;16.55;4.30;;;;;;;24.19;47.02;100742.81;5034406;28;20064;-79
2022/09/02 10:00:47;;;;;;;9.93;3.72;;;;;;;24.61;45.59;100756.59;5034046;28;20084;-79
2022/09/02 10:03:25;;;;;;;5.00;3.25;;;;;;;23.99;45.68;100744.13;5033087;28;20099;-81
2022/09/02 10:05:54;;;;;;;7.10;3.30;;;;;;;24.45;45.24;100750.25;5028815;28;20073;-81
2022/09/02 10:08:23;;;;;;;6.60;3.17;;;;;;;24.95;44.08;100754.69;5031226;28;20153;-80
2022/09/02 10:11:00;;;;;;;7.75;3.25;;;;;;;25.10;43.45;100745.00;5031471;28;20041;-79
2022/09/02 10:13:29;;;;;;;4.88;3.47;;;;;;;24.58;44.64;100747.19;5030737;28;20084;-79
2022/09/02 10:16:26;;;;;;;4.70;3.17;;;;;;;24.06;44.78;100749.31;5030734;28;20162;-80
2022/09/02 10:18:58;;;;;;;6.72;3.42;;;;;;;24.45;44.04;100759.06;5034867;28;20129;-80
2022/09/02 10:21:50;;;;;;;6.45;3.30;;;;;;;24.15;44.60;100751.31;5034342;28;20038;-80
2022/09/02 10:24:37;;;;;;;4.20;3.47;;;;;;;24.13;44.80;100734.72;5036827;28;20073;-81
2022/09/02 10:27:08;;;;;;;4.80;3.20;;;;;;;24.20;44.36;100739.09;5036110;28;20111;-78
2022/09/02 10:30:00;;;;;;;4.72;3.28;;;;;;;24.56;43.09;100744.00;5036839;28;20077;-81
2022/09/02 10:32:51;;;;;;;7.22;3.35;;;;;;;24.03;43.26;100739.13;5038505;28;20103;-81
2022/09/02 10:35:32;;;;;;;7.63;3.40;;;;;;;24.59;43.29;100732.78;5038310;28;20475;-81
2022/09/02 10:38:12;;;;;;;6.25;3.33;;;;;;;24.99;42.57;100732.56;5036877;28;20077;-82
2022/09/02 10:40:46;;;;;;;7.15;3.35;;;;;;;24.67;42.21;100724.31;5038202;28;20061;-80
2022/09/02 10:43:32;;;;;;;8.63;3.58;;;;;;;24.70;41.04;100723.84;5038783;28;20383;-82
2022/09/02 10:46:01;;;;;;;5.65;3.45;;;;;;;24.37;41.71;100718.56;5024860;28;20084;-81
2022/09/02 10:48:41;;;;;;;6.38;4.03;;;;;;;24.40;42.32;100708.19;5037120;28;20107;-81
2022/09/02 10:51:19;;;;;;;6.70;3.38;;;;;;;24.91;42.08;100718.75;5032661;28;20095;-81
2022/09/02 10:53:59;;;;;;;6.75;3.42;;;;;;;24.39;42.82;100721.78;5033318;28;20564;-80
2022/09/02 10:56:33;;;;;;;6.45;3.13;;;;;;;24.19;42.48;100711.56;5034863;28;20092;-79
2022/09/02 10:59:06;;;;;;;32.55;5.55;;;;;;;24.20;42.23;100723.06;5029106;28;20132;-82
2022/09/02 11:01:39;;;;;;;13.57;3.00;;;;;;;24.58;41.86;100714.28;5029959;28;20139;-81
2022/09/02 11:04:14;;;;;;;3.40;2.95;;;;;;;24.90;41.23;100698.41;5030234;28;20111;-79
2022/09/02 11:06:45;;;;;;;5.95;3.30;;;;;;;24.39;41.79;100700.41;5028600;28;20404;-81
2022/09/02 11:09:21;;;;;;;10.38;3.33;;;;;;;24.86;40.92;100708.00;5031054;28;20077;-80
2022/09/02 11:11:54;;;;;;;7.13;3.28;;;;;;;25.05;40.86;100703.94;5033740;28;20045;-80
2022/09/02 11:14:28;;;;;;;4.97;3.15;;;;;;;25.40;40.49;100690.97;5027527;28;20049;-81
2022/09/02 11:17:03;;;;;;;8.63;3.28;;;;;;;25.94;39.05;100701.69;5030150;28;20056;-80
2022/09/02 11:19:38;;;;;;;9.90;3.63;;;;;;;26.09;39.24;100695.63;5035578;28;20415;-79
2022/09/02 11:22:16;;;;;;;5.50;2.92;;;;;;;25.79;38.92;100693.50;5029724;28;20042;-82
2022/09/02 11:24:50;;;;;;;3.50;3.20;;;;;;;26.00;38.83;100683.75;5037779;28;20613;-81
2022/09/02 11:27:30;;;;;;;6.32;3.33;;;;;;;26.69;38.37;100681.78;5040491;28;20037;-82
2022/09/02 11:30:02;;;;;;;4.78;3.10;;;;;;;25.69;38.79;100693.41;5040992;28;20053;-81
2022/09/02 11:32:37;;;;;;;3.22;2.90;;;;;;;25.57;38.29;100700.75;5028629;28;20482;-79
2022/09/02 11:35:09;;;;;;;6.65;3.13;;;;;;;24.89;39.30;100684.22;5038603;28;20203;-80
2022/09/02 11:37:43;;;;;;;5.82;3.03;;;;;;;24.89;39.61;100683.41;5039644;28;20061;-81
2022/09/02 11:40:17;;;;;;;4.53;3.40;;;;;;;25.16;38.81;100678.91;5037836;28;20041;-80
2022/09/02 11:43:02;;;;;;;7.93;3.38;;;;;;;24.85;39.12;100671.56;5038803;28;20540;-79
2022/09/02 11:45:57;;;;;;;7.20;3.25;;;;;;;25.38;39.22;100669.00;5041080;28;20049;-81
2022/09/02 11:49:00;;;;;;;6.13;3.10;;;;;;;25.50;38.32;100668.03;5039807;28;20045;-81
2022/09/02 11:51:43;;;;;;;4.28;2.78;;;;;;;25.37;38.40;100662.00;5039703;28;20045;-80
2022/09/02 11:54:16;;;;;;;7.13;3.15;;;;;;;25.40;38.72;100664.19;5030417;28;20438;-80
2022/09/02 11:56:47;;;;;;;3.53;2.85;;;;;;;25.51;38.48;100673.13;5029834;28;20287;-79
2022/09/02 11:59:21;;;;;;;3.73;3.07;;;;;;;25.17;38.36;100669.81;5037924;28;20481;-79
2022/09/02 12:01:52;;;;;;;6.20;3.30;;;;;;;25.39;38.81;100672.47;5037193;28;20340;-80
2022/09/02 12:04:24;;;;;;;6.28;3.08;;;;;;;25.25;38.23;100661.34;5037765;28;20103;-80
2022/09/02 12:07:25;;;;;;;5.30;2.80;;;;;;;26.06;37.82;100658.59;5040094;28;20480;-80
2022/09/02 12:09:54;;;;;;;5.70;3.30;;;;;;;25.50;38.25;100649.28;5025199;28;20108;-80